sensor_id;sensor_type;location;lat;lon;timestamp;P1;durP1;ratioP1;P2;durP2;ratioP2
62693;SDS011;48759;52.544;13.418;2024-01-15T00:00:46;14.13;;;9.20;;
62693;SDS011;48759;52.544;13.418;2024-01-15T00:03:13;10.17;;;8.37;;
62693;SDS011;48759;52.544;13.418;2024-01-15T00:05:40;12.50;;;8.60;;
62693;SDS011;48759;52.544;13.418;2024-01-15T00:08:06;11.90;;;9.03;;
62693;SDS011;48759;52.544;13.418;2024-01-15T00:10:33;14.00;;;9.67;;
62693;SDS011;48759;52.544;13.418;2024-01-15T00:13:01;13.13;;;9.20;;
62693;SDS011;48759;52.544;13.418;2024-01-15T00:15:28;13.47;;;8.83;;
62693;SDS011;48759;52.544;13.418;2024-01-15T00:17:56;11.50;;;8.10;;
62693;SDS011;48759;52.544;13.418;2024-01-15T00:20:22;14.40;;;9.77;;
62693;SDS011;48759;52.544;13.418;2024-01-15T00:22:49;11.47;;;7.80;;
62693;SDS011;48759;52.544;13.418;2024-01-15T00:25:16;11.50;;;8.10;;
62693;SDS011;48759;52.544;13.418;2024-01-15T00:27:42;12.77;;;7.73;;
62693;SDS011;48759;52.544;13.418;2024-01-15T00:30:13;13.40;;;8.70;;
62693;SDS011;48759;52.544;13.418;2024-01-15T00:32:40;13.97;;;9.60;;
62693;SDS011;48759;52.544;13.418;2024-01-15T00:35:08;12.40;;;7.83;;
62693;SDS011;48759;52.544;13.418;2024-01-15T00:37:35;11.73;;;8.20;;
62693;SDS011;48759;52.544;13.418;2024-01-15T00:40:02;10.50;;;7.87;;
62693;SDS011;48759;52.544;13.418;2024-01-15T00:42:30;12.43;;;8.13;;
62693;SDS011;48759;52.544;13.418;2024-01-15T00:44:59;11.10;;;8.00;;
62693;SDS011;48759;52.544;13.418;2024-01-15T00:47:27;12.40;;;8.70;;
62693;SDS011;48759;52.544;13.418;2024-01-15T00:49:56;11.80;;;8.90;;
62693;SDS011;48759;52.544;13.418;2024-01-15T00:52:22;13.00;;;9.33;;
62693;SDS011;48759;52.544;13.418;2024-01-15T00:54:49;11.03;;;8.57;;
62693;SDS011;48759;52.544;13.418;2024-01-15T00:57:21;11.97;;;8.40;;
62693;SDS011;48759;52.544;13.418;2024-01-15T00:59:47;14.97;;;8.40;;
62693;SDS011;48759;52.544;13.418;2024-01-15T01:02:18;12.23;;;9.33;;
62693;SDS011;48759;52.544;13.418;2024-01-15T01:04:46;12.63;;;9.03;;
62693;SDS011;48759;52.544;13.418;2024-01-15T01:07:13;13.17;;;9.00;;
62693;SDS011;48759;52.544;13.418;2024-01-15T01:09:40;14.50;;;10.03;;
62693;SDS011;48759;52.544;13.418;2024-01-15T01:12:07;13.40;;;9.30;;
62693;SDS011;48759;52.544;13.418;2024-01-15T01:14:33;12.87;;;8.60;;
62693;SDS011;48759;52.544;13.418;2024-01-15T01:17:01;12.07;;;8.70;;
62693;SDS011;48759;52.544;13.418;2024-01-15T01:19:27;16.40;;;9.47;;
62693;SDS011;48759;52.544;13.418;2024-01-15T01:21:58;14.20;;;10.37;;
62693;SDS011;48759;52.544;13.418;2024-01-15T01:24:24;15.93;;;10.93;;
62693;SDS011;48759;52.544;13.418;2024-01-15T01:26:51;19.83;;;11.40;;
62693;SDS011;48759;52.544;13.418;2024-01-15T01:29:20;18.53;;;11.23;;
62693;SDS011;48759;52.544;13.418;2024-01-15T01:31:48;15.83;;;10.00;;
62693;SDS011;48759;52.544;13.418;2024-01-15T01:34:15;18.10;;;11.00;;
62693;SDS011;48759;52.544;13.418;2024-01-15T01:36:42;18.40;;;11.30;;
62693;SDS011;48759;52.544;13.418;2024-01-15T01:39:11;13.63;;;10.00;;
62693;SDS011;48759;52.544;13.418;2024-01-15T01:41:38;17.77;;;10.80;;
62693;SDS011;48759;52.544;13.418;2024-01-15T01:44:04;17.87;;;10.60;;
62693;SDS011;48759;52.544;13.418;2024-01-15T01:46:31;17.07;;;10.70;;
62693;SDS011;48759;52.544;13.418;2024-01-15T01:48:58;18.20;;;11.43;;
62693;SDS011;48759;52.544;13.418;2024-01-15T01:51:30;21.23;;;10.07;;
62693;SDS011;48759;52.544;13.418;2024-01-15T01:53:57;17.90;;;10.93;;
62693;SDS011;48759;52.544;13.418;2024-01-15T01:56:25;16.10;;;9.33;;
62693;SDS011;48759;52.544;13.418;2024-01-15T01:58:51;15.57;;;9.50;;
62693;SDS011;48759;52.544;13.418;2024-01-15T02:01:18;14.50;;;9.70;;
62693;SDS011;48759;52.544;13.418;2024-01-15T02:03:46;16.13;;;9.23;;
62693;SDS011;48759;52.544;13.418;2024-01-15T02:06:13;15.80;;;10.60;;
62693;SDS011;48759;52.544;13.418;2024-01-15T02:08:39;20.73;;;10.07;;
62693;SDS011;48759;52.544;13.418;2024-01-15T02:11:11;17.00;;;9.37;;
62693;SDS011;48759;52.544;13.418;2024-01-15T02:13:41;15.13;;;9.80;;
62693;SDS011;48759;52.544;13.418;2024-01-15T02:16:09;15.50;;;8.70;;
62693;SDS011;48759;52.544;13.418;2024-01-15T02:18:39;18.63;;;9.87;;
62693;SDS011;48759;52.544;13.418;2024-01-15T02:21:06;12.77;;;7.80;;
62693;SDS011;48759;52.544;13.418;2024-01-15T02:23:34;19.23;;;8.87;;
62693;SDS011;48759;52.544;13.418;2024-01-15T02:26:00;15.00;;;8.73;;
62693;SDS011;48759;52.544;13.418;2024-01-15T02:28:27;12.33;;;8.13;;
62693;SDS011;48759;52.544;13.418;2024-01-15T02:30:54;11.23;;;7.27;;
62693;SDS011;48759;52.544;13.418;2024-01-15T02:33:20;11.43;;;7.77;;
62693;SDS011;48759;52.544;13.418;2024-01-15T02:35:47;11.93;;;7.50;;
62693;SDS011;48759;52.544;13.418;2024-01-15T02:38:15;11.93;;;6.43;;
62693;SDS011;48759;52.544;13.418;2024-01-15T02:40:43;8.87;;;5.63;;
62693;SDS011;48759;52.544;13.418;2024-01-15T02:43:10;12.00;;;7.10;;
62693;SDS011;48759;52.544;13.418;2024-01-15T02:45:37;15.63;;;7.03;;
62693;SDS011;48759;52.544;13.418;2024-01-15T02:48:03;14.37;;;6.27;;
62693;SDS011;48759;52.544;13.418;2024-01-15T02:50:30;13.90;;;6.53;;
62693;SDS011;48759;52.544;13.418;2024-01-15T02:52:56;10.30;;;5.93;;
62693;SDS011;48759;52.544;13.418;2024-01-15T02:55:23;10.33;;;6.40;;
62693;SDS011;48759;52.544;13.418;2024-01-15T02:57:51;11.17;;;6.60;;
62693;SDS011;48759;52.544;13.418;2024-01-15T03:00:17;11.80;;;6.33;;
62693;SDS011;48759;52.544;13.418;2024-01-15T03:02:44;8.93;;;5.30;;
62693;SDS011;48759;52.544;13.418;2024-01-15T03:05:11;11.80;;;5.73;;
62693;SDS011;48759;52.544;13.418;2024-01-15T03:07:38;9.00;;;5.80;;
62693;SDS011;48759;52.544;13.418;2024-01-15T03:10:04;8.70;;;6.60;;
62693;SDS011;48759;52.544;13.418;2024-01-15T03:12:31;8.03;;;5.80;;
62693;SDS011;48759;52.544;13.418;2024-01-15T03:14:59;11.20;;;5.63;;
62693;SDS011;48759;52.544;13.418;2024-01-15T03:17:26;9.60;;;5.33;;
62693;SDS011;48759;52.544;13.418;2024-01-15T03:19:52;12.03;;;6.50;;
62693;SDS011;48759;52.544;13.418;2024-01-15T03:22:19;6.30;;;5.13;;
62693;SDS011;48759;52.544;13.418;2024-01-15T03:24:46;15.43;;;5.70;;
62693;SDS011;48759;52.544;13.418;2024-01-15T03:27:12;7.23;;;5.07;;
62693;SDS011;48759;52.544;13.418;2024-01-15T03:29:39;6.67;;;5.13;;
62693;SDS011;48759;52.544;13.418;2024-01-15T03:32:07;8.97;;;5.87;;
62693;SDS011;48759;52.544;13.418;2024-01-15T03:34:33;8.63;;;5.70;;
62693;SDS011;48759;52.544;13.418;2024-01-15T03:37:00;9.17;;;6.03;;
62693;SDS011;48759;52.544;13.418;2024-01-15T03:39:26;11.53;;;5.57;;
62693;SDS011;48759;52.544;13.418;2024-01-15T03:41:53;7.37;;;5.27;;
62693;SDS011;48759;52.544;13.418;2024-01-15T03:44:19;9.23;;;6.00;;
62693;SDS011;48759;52.544;13.418;2024-01-15T03:46:46;8.80;;;4.80;;
62693;SDS011;48759;52.544;13.418;2024-01-15T03:49:14;10.37;;;5.57;;
62693;SDS011;48759;52.544;13.418;2024-01-15T03:51:40;13.13;;;4.83;;
62693;SDS011;48759;52.544;13.418;2024-01-15T03:54:07;11.43;;;5.20;;
62693;SDS011;48759;52.544;13.418;2024-01-15T03:56:33;9.57;;;4.90;;
62693;SDS011;48759;52.544;13.418;2024-01-15T03:59:00;8.17;;;5.00;;
62693;SDS011;48759;52.544;13.418;2024-01-15T04:01:27;6.53;;;4.87;;
62693;SDS011;48759;52.544;13.418;2024-01-15T04:03:53;13.80;;;5.00;;
62693;SDS011;48759;52.544;13.418;2024-01-15T04:06:21;10.30;;;4.97;;
62693;SDS011;48759;52.544;13.418;2024-01-15T04:08:47;8.37;;;4.47;;
62693;SDS011;48759;52.544;13.418;2024-01-15T04:11:14;7.73;;;4.83;;
62693;SDS011;48759;52.544;13.418;2024-01-15T04:13:42;7.23;;;4.87;;
62693;SDS011;48759;52.544;13.418;2024-01-15T04:16:09;7.90;;;4.47;;
62693;SDS011;48759;52.544;13.418;2024-01-15T04:18:35;7.00;;;4.60;;
62693;SDS011;48759;52.544;13.418;2024-01-15T04:21:03;7.47;;;4.00;;
62693;SDS011;48759;52.544;13.418;2024-01-15T04:23:31;8.00;;;3.90;;
62693;SDS011;48759;52.544;13.418;2024-01-15T04:25:59;12.70;;;5.37;;
62693;SDS011;48759;52.544;13.418;2024-01-15T04:28:25;7.20;;;4.10;;
62693;SDS011;48759;52.544;13.418;2024-01-15T04:30:52;7.80;;;4.17;;
62693;SDS011;48759;52.544;13.418;2024-01-15T04:33:19;10.10;;;4.80;;
62693;SDS011;48759;52.544;13.418;2024-01-15T04:35:46;5.60;;;3.70;;
62693;SDS011;48759;52.544;13.418;2024-01-15T04:38:12;10.37;;;6.33;;
62693;SDS011;48759;52.544;13.418;2024-01-15T04:40:40;5.73;;;4.00;;
62693;SDS011;48759;52.544;13.418;2024-01-15T04:43:06;8.43;;;4.40;;
62693;SDS011;48759;52.544;13.418;2024-01-15T04:45:33;14.53;;;4.87;;
62693;SDS011;48759;52.544;13.418;2024-01-15T04:48:00;11.83;;;4.40;;
62693;SDS011;48759;52.544;13.418;2024-01-15T04:50:26;9.63;;;4.10;;
62693;SDS011;48759;52.544;13.418;2024-01-15T04:52:52;7.87;;;3.77;;
62693;SDS011;48759;52.544;13.418;2024-01-15T04:55:19;5.10;;;3.97;;
62693;SDS011;48759;52.544;13.418;2024-01-15T04:57:49;8.83;;;3.43;;
62693;SDS011;48759;52.544;13.418;2024-01-15T05:00:16;6.10;;;3.23;;
62693;SDS011;48759;52.544;13.418;2024-01-15T05:02:42;3.07;;;2.77;;
62693;SDS011;48759;52.544;13.418;2024-01-15T05:05:09;13.93;;;4.07;;
62693;SDS011;48759;52.544;13.418;2024-01-15T05:07:35;5.80;;;3.37;;
62693;SDS011;48759;52.544;13.418;2024-01-15T05:10:02;10.63;;;3.43;;
62693;SDS011;48759;52.544;13.418;2024-01-15T05:12:29;4.40;;;3.27;;
62693;SDS011;48759;52.544;13.418;2024-01-15T05:14:57;6.13;;;3.17;;
62693;SDS011;48759;52.544;13.418;2024-01-15T05:17:27;6.70;;;2.57;;
62693;SDS011;48759;52.544;13.418;2024-01-15T05:19:53;6.40;;;3.47;;
62693;SDS011;48759;52.544;13.418;2024-01-15T05:22:19;8.13;;;3.13;;
62693;SDS011;48759;52.544;13.418;2024-01-15T05:24:46;6.83;;;3.20;;
62693;SDS011;48759;52.544;13.418;2024-01-15T05:27:14;5.93;;;3.17;;
62693;SDS011;48759;52.544;13.418;2024-01-15T05:29:40;6.10;;;3.00;;
62693;SDS011;48759;52.544;13.418;2024-01-15T05:32:09;4.47;;;3.30;;
62693;SDS011;48759;52.544;13.418;2024-01-15T05:34:36;6.63;;;2.67;;
62693;SDS011;48759;52.544;13.418;2024-01-15T05:37:05;4.73;;;2.97;;
62693;SDS011;48759;52.544;13.418;2024-01-15T05:39:35;5.50;;;2.47;;
62693;SDS011;48759;52.544;13.418;2024-01-15T05:42:04;4.47;;;2.40;;
62693;SDS011;48759;52.544;13.418;2024-01-15T05:44:31;6.90;;;2.60;;
62693;SDS011;48759;52.544;13.418;2024-01-15T05:46:57;6.40;;;1.90;;
62693;SDS011;48759;52.544;13.418;2024-01-15T05:49:27;5.93;;;2.83;;
62693;SDS011;48759;52.544;13.418;2024-01-15T05:51:55;4.10;;;2.03;;
62693;SDS011;48759;52.544;13.418;2024-01-15T05:54:27;13.23;;;2.70;;
62693;SDS011;48759;52.544;13.418;2024-01-15T05:57:10;3.43;;;2.40;;
62693;SDS011;48759;52.544;13.418;2024-01-15T05:59:42;4.27;;;2.37;;
62693;SDS011;48759;52.544;13.418;2024-01-15T06:02:09;5.30;;;2.57;;
62693;SDS011;48759;52.544;13.418;2024-01-15T06:04:37;2.57;;;2.00;;
62693;SDS011;48759;52.544;13.418;2024-01-15T06:07:03;9.87;;;2.63;;
62693;SDS011;48759;52.544;13.418;2024-01-15T06:09:30;13.60;;;2.77;;
62693;SDS011;48759;52.544;13.418;2024-01-15T06:11:58;3.40;;;2.73;;
62693;SDS011;48759;52.544;13.418;2024-01-15T06:14:26;8.00;;;2.60;;
62693;SDS011;48759;52.544;13.418;2024-01-15T06:16:52;3.30;;;2.10;;
62693;SDS011;48759;52.544;13.418;2024-01-15T06:19:19;3.77;;;2.23;;
62693;SDS011;48759;52.544;13.418;2024-01-15T06:21:47;10.57;;;2.57;;
62693;SDS011;48759;52.544;13.418;2024-01-15T06:24:14;3.17;;;1.90;;
62693;SDS011;48759;52.544;13.418;2024-01-15T06:26:43;7.83;;;1.80;;
62693;SDS011;48759;52.544;13.418;2024-01-15T06:29:09;5.23;;;1.80;;
62693;SDS011;48759;52.544;13.418;2024-01-15T06:31:37;5.07;;;1.97;;
62693;SDS011;48759;52.544;13.418;2024-01-15T06:34:03;5.07;;;1.87;;
62693;SDS011;48759;52.544;13.418;2024-01-15T06:36:30;2.07;;;1.57;;
62693;SDS011;48759;52.544;13.418;2024-01-15T06:38:58;8.47;;;2.53;;
62693;SDS011;48759;52.544;13.418;2024-01-15T06:41:27;5.30;;;1.90;;
62693;SDS011;48759;52.544;13.418;2024-01-15T06:43:54;6.40;;;2.50;;
62693;SDS011;48759;52.544;13.418;2024-01-15T06:46:20;8.00;;;3.00;;
62693;SDS011;48759;52.544;13.418;2024-01-15T06:48:47;6.73;;;2.07;;
62693;SDS011;48759;52.544;13.418;2024-01-15T06:51:15;7.23;;;1.93;;
62693;SDS011;48759;52.544;13.418;2024-01-15T06:53:42;5.10;;;2.50;;
62693;SDS011;48759;52.544;13.418;2024-01-15T06:56:12;3.10;;;1.80;;
62693;SDS011;48759;52.544;13.418;2024-01-15T06:58:39;5.67;;;2.10;;
62693;SDS011;48759;52.544;13.418;2024-01-15T07:01:05;2.80;;;1.90;;
62693;SDS011;48759;52.544;13.418;2024-01-15T07:03:33;3.20;;;2.80;;
62693;SDS011;48759;52.544;13.418;2024-01-15T07:06:00;7.63;;;2.17;;
62693;SDS011;48759;52.544;13.418;2024-01-15T07:08:27;6.17;;;1.80;;
62693;SDS011;48759;52.544;13.418;2024-01-15T07:10:53;8.10;;;3.00;;
62693;SDS011;48759;52.544;13.418;2024-01-15T07:13:22;10.63;;;2.00;;
62693;SDS011;48759;52.544;13.418;2024-01-15T07:15:49;7.97;;;2.00;;
62693;SDS011;48759;52.544;13.418;2024-01-15T07:18:15;7.83;;;1.97;;
62693;SDS011;48759;52.544;13.418;2024-01-15T07:20:42;13.87;;;2.70;;
62693;SDS011;48759;52.544;13.418;2024-01-15T07:23:09;4.00;;;1.57;;
62693;SDS011;48759;52.544;13.418;2024-01-15T07:25:37;8.67;;;1.80;;
62693;SDS011;48759;52.544;13.418;2024-01-15T07:28:04;8.10;;;2.07;;
62693;SDS011;48759;52.544;13.418;2024-01-15T07:30:33;7.80;;;2.13;;
62693;SDS011;48759;52.544;13.418;2024-01-15T07:33:00;5.60;;;1.40;;
62693;SDS011;48759;52.544;13.418;2024-01-15T07:35:29;9.23;;;2.30;;
62693;SDS011;48759;52.544;13.418;2024-01-15T07:37:57;4.77;;;2.10;;
62693;SDS011;48759;52.544;13.418;2024-01-15T07:40:26;6.23;;;2.20;;
62693;SDS011;48759;52.544;13.418;2024-01-15T07:42:53;8.37;;;3.27;;
62693;SDS011;48759;52.544;13.418;2024-01-15T07:45:20;9.60;;;2.40;;
62693;SDS011;48759;52.544;13.418;2024-01-15T07:47:51;4.70;;;2.50;;
62693;SDS011;48759;52.544;13.418;2024-01-15T07:50:19;12.93;;;2.20;;
62693;SDS011;48759;52.544;13.418;2024-01-15T07:52:48;12.90;;;2.40;;
62693;SDS011;48759;52.544;13.418;2024-01-15T07:55:15;39.40;;;11.00;;
62693;SDS011;48759;52.544;13.418;2024-01-15T07:57:41;3.87;;;1.90;;
62693;SDS011;48759;52.544;13.418;2024-01-15T08:00:09;9.67;;;2.53;;
62693;SDS011;48759;52.544;13.418;2024-01-15T08:02:36;7.07;;;2.03;;
62693;SDS011;48759;52.544;13.418;2024-01-15T08:05:05;10.47;;;2.17;;
62693;SDS011;48759;52.544;13.418;2024-01-15T08:07:32;8.23;;;2.53;;
62693;SDS011;48759;52.544;13.418;2024-01-15T08:10:00;5.30;;;2.13;;
62693;SDS011;48759;52.544;13.418;2024-01-15T08:12:33;7.50;;;2.10;;
62693;SDS011;48759;52.544;13.418;2024-01-15T08:15:09;3.67;;;1.70;;
62693;SDS011;48759;52.544;13.418;2024-01-15T08:17:54;12.50;;;2.07;;
62693;SDS011;48759;52.544;13.418;2024-01-15T08:20:26;11.67;;;3.13;;
62693;SDS011;48759;52.544;13.418;2024-01-15T08:23:02;6.07;;;2.00;;
62693;SDS011;48759;52.544;13.418;2024-01-15T08:25:31;8.13;;;2.17;;
62693;SDS011;48759;52.544;13.418;2024-01-15T08:28:01;6.87;;;1.93;;
62693;SDS011;48759;52.544;13.418;2024-01-15T08:30:33;4.80;;;2.30;;
62693;SDS011;48759;52.544;13.418;2024-01-15T08:33:03;14.33;;;2.30;;
62693;SDS011;48759;52.544;13.418;2024-01-15T08:35:31;7.43;;;1.97;;
62693;SDS011;48759;52.544;13.418;2024-01-15T08:38:00;11.27;;;2.57;;
62693;SDS011;48759;52.544;13.418;2024-01-15T08:40:30;6.13;;;2.00;;
62693;SDS011;48759;52.544;13.418;2024-01-15T08:43:08;3.80;;;2.03;;
62693;SDS011;48759;52.544;13.418;2024-01-15T08:45:46;3.07;;;1.87;;
62693;SDS011;48759;52.544;13.418;2024-01-15T08:48:15;3.03;;;1.50;;
62693;SDS011;48759;52.544;13.418;2024-01-15T08:50:44;5.83;;;1.77;;
62693;SDS011;48759;52.544;13.418;2024-01-15T08:53:14;6.50;;;1.60;;
62693;SDS011;48759;52.544;13.418;2024-01-15T08:55:45;3.23;;;1.50;;
62693;SDS011;48759;52.544;13.418;2024-01-15T08:58:14;7.97;;;1.87;;
62693;SDS011;48759;52.544;13.418;2024-01-15T09:00:41;8.70;;;2.43;;
62693;SDS011;48759;52.544;13.418;2024-01-15T09:03:13;4.73;;;1.70;;
62693;SDS011;48759;52.544;13.418;2024-01-15T09:05:40;7.10;;;1.80;;
62693;SDS011;48759;52.544;13.418;2024-01-15T09:11:02;8.63;;;2.20;;
62693;SDS011;48759;52.544;13.418;2024-01-15T09:13:28;5.50;;;1.67;;
62693;SDS011;48759;52.544;13.418;2024-01-15T09:15:58;6.50;;;2.13;;
62693;SDS011;48759;52.544;13.418;2024-01-15T09:18:35;8.07;;;2.17;;
62693;SDS011;48759;52.544;13.418;2024-01-15T09:21:35;11.73;;;2.23;;
62693;SDS011;48759;52.544;13.418;2024-01-15T09:24:06;8.33;;;1.97;;
62693;SDS011;48759;52.544;13.418;2024-01-15T09:26:45;5.63;;;2.00;;
62693;SDS011;48759;52.544;13.418;2024-01-15T09:29:27;11.53;;;3.00;;
62693;SDS011;48759;52.544;13.418;2024-01-15T09:31:59;7.50;;;1.60;;
62693;SDS011;48759;52.544;13.418;2024-01-15T09:34:49;2.87;;;1.60;;
62693;SDS011;48759;52.544;13.418;2024-01-15T09:37:18;9.67;;;2.87;;
62693;SDS011;48759;52.544;13.418;2024-01-15T09:39:49;6.13;;;1.87;;
62693;SDS011;48759;52.544;13.418;2024-01-15T09:42:30;7.73;;;1.83;;
62693;SDS011;48759;52.544;13.418;2024-01-15T09:45:12;3.73;;;2.53;;
62693;SDS011;48759;52.544;13.418;2024-01-15T09:47:40;6.40;;;2.40;;
62693;SDS011;48759;52.544;13.418;2024-01-15T09:50:11;4.40;;;1.70;;
62693;SDS011;48759;52.544;13.418;2024-01-15T09:52:39;5.37;;;1.93;;
62693;SDS011;48759;52.544;13.418;2024-01-15T09:55:17;2.93;;;1.60;;
62693;SDS011;48759;52.544;13.418;2024-01-15T09:57:47;4.23;;;1.57;;
62693;SDS011;48759;52.544;13.418;2024-01-15T10:00:17;7.83;;;1.90;;
62693;SDS011;48759;52.544;13.418;2024-01-15T10:02:46;10.83;;;5.20;;
62693;SDS011;48759;52.544;13.418;2024-01-15T10:05:14;6.67;;;2.23;;
62693;SDS011;48759;52.544;13.418;2024-01-15T10:07:43;3.97;;;1.63;;
62693;SDS011;48759;52.544;13.418;2024-01-15T10:10:11;7.57;;;1.70;;
62693;SDS011;48759;52.544;13.418;2024-01-15T10:12:39;11.70;;;2.77;;
62693;SDS011;48759;52.544;13.418;2024-01-15T10:15:10;7.23;;;1.90;;
62693;SDS011;48759;52.544;13.418;2024-01-15T10:17:49;4.93;;;1.77;;
62693;SDS011;48759;52.544;13.418;2024-01-15T10:20:17;3.40;;;1.73;;
62693;SDS011;48759;52.544;13.418;2024-01-15T10:22:46;1.50;;;1.40;;
62693;SDS011;48759;52.544;13.418;2024-01-15T10:25:29;2.97;;;2.10;;
62693;SDS011;48759;52.544;13.418;2024-01-15T10:28:00;2.40;;;1.50;;
62693;SDS011;48759;52.544;13.418;2024-01-15T10:36:05;7.50;;;1.90;;
62693;SDS011;48759;52.544;13.418;2024-01-15T10:38:37;5.17;;;1.83;;
62693;SDS011;48759;52.544;13.418;2024-01-15T10:41:06;2.03;;;1.33;;
62693;SDS011;48759;52.544;13.418;2024-01-15T10:43:46;2.80;;;1.87;;
62693;SDS011;48759;52.544;13.418;2024-01-15T10:46:14;2.20;;;1.90;;
62693;SDS011;48759;52.544;13.418;2024-01-15T10:48:44;3.73;;;1.70;;
62693;SDS011;48759;52.544;13.418;2024-01-15T10:51:14;2.77;;;1.80;;
62693;SDS011;48759;52.544;13.418;2024-01-15T10:53:46;4.57;;;1.60;;
62693;SDS011;48759;52.544;13.418;2024-01-15T10:56:13;4.70;;;2.07;;
62693;SDS011;48759;52.544;13.418;2024-01-15T10:58:40;3.80;;;1.83;;
62693;SDS011;48759;52.544;13.418;2024-01-15T11:01:08;3.07;;;1.70;;
62693;SDS011;48759;52.544;13.418;2024-01-15T11:03:35;4.03;;;1.70;;
62693;SDS011;48759;52.544;13.418;2024-01-15T11:06:17;3.30;;;1.53;;
62693;SDS011;48759;52.544;13.418;2024-01-15T11:09:03;1.90;;;1.70;;
62693;SDS011;48759;52.544;13.418;2024-01-15T11:11:40;1.90;;;1.70;;
62693;SDS011;48759;52.544;13.418;2024-01-15T11:14:11;3.87;;;1.50;;
62693;SDS011;48759;52.544;13.418;2024-01-15T11:16:53;2.77;;;2.10;;
62693;SDS011;48759;52.544;13.418;2024-01-15T11:19:45;1.93;;;1.40;;
62693;SDS011;48759;52.544;13.418;2024-01-15T11:24:57;2.90;;;1.50;;
62693;SDS011;48759;52.544;13.418;2024-01-15T11:27:39;1.73;;;1.20;;
62693;SDS011;48759;52.544;13.418;2024-01-15T11:30:08;2.07;;;1.40;;
62693;SDS011;48759;52.544;13.418;2024-01-15T11:32:36;3.13;;;1.30;;
62693;SDS011;48759;52.544;13.418;2024-01-15T11:35:33;1.43;;;1.33;;
62693;SDS011;48759;52.544;13.418;2024-01-15T11:38:29;1.47;;;1.17;;
62693;SDS011;48759;52.544;13.418;2024-01-15T11:41:06;4.00;;;1.40;;
62693;SDS011;48759;52.544;13.418;2024-01-15T11:43:46;1.50;;;1.43;;
62693;SDS011;48759;52.544;13.418;2024-01-15T11:46:13;9.03;;;1.77;;
62693;SDS011;48759;52.544;13.418;2024-01-15T11:48:42;2.07;;;1.67;;
62693;SDS011;48759;52.544;13.418;2024-01-15T11:51:12;4.53;;;1.83;;
62693;SDS011;48759;52.544;13.418;2024-01-15T11:53:42;6.57;;;2.00;;
62693;SDS011;48759;52.544;13.418;2024-01-15T11:56:30;8.23;;;2.40;;
62693;SDS011;48759;52.544;13.418;2024-01-15T11:59:03;5.13;;;1.87;;
62693;SDS011;48759;52.544;13.418;2024-01-15T12:01:30;2.70;;;2.20;;
62693;SDS011;48759;52.544;13.418;2024-01-15T12:03:58;5.10;;;2.13;;
62693;SDS011;48759;52.544;13.418;2024-01-15T12:06:25;3.30;;;1.90;;
62693;SDS011;48759;52.544;13.418;2024-01-15T12:09:05;2.60;;;2.20;;
62693;SDS011;48759;52.544;13.418;2024-01-15T12:11:36;1.87;;;1.60;;
62693;SDS011;48759;52.544;13.418;2024-01-15T12:14:06;5.80;;;2.23;;
62693;SDS011;48759;52.544;13.418;2024-01-15T12:16:34;1.53;;;1.50;;
62693;SDS011;48759;52.544;13.418;2024-01-15T12:19:02;4.20;;;1.93;;
62693;SDS011;48759;52.544;13.418;2024-01-15T12:21:45;2.30;;;1.80;;
62693;SDS011;48759;52.544;13.418;2024-01-15T12:24:26;2.10;;;1.73;;
62693;SDS011;48759;52.544;13.418;2024-01-15T12:29:42;3.90;;;1.80;;
62693;SDS011;48759;52.544;13.418;2024-01-15T12:32:12;4.60;;;1.93;;
62693;SDS011;48759;52.544;13.418;2024-01-15T12:34:43;2.20;;;1.60;;
62693;SDS011;48759;52.544;13.418;2024-01-15T12:37:14;4.10;;;2.20;;
62693;SDS011;48759;52.544;13.418;2024-01-15T12:39:42;2.10;;;1.43;;
62693;SDS011;48759;52.544;13.418;2024-01-15T12:42:10;1.97;;;1.40;;
62693;SDS011;48759;52.544;13.418;2024-01-15T12:44:44;2.00;;;1.80;;
62693;SDS011;48759;52.544;13.418;2024-01-15T12:47:11;2.63;;;1.47;;
62693;SDS011;48759;52.544;13.418;2024-01-15T12:49:46;2.00;;;1.57;;
62693;SDS011;48759;52.544;13.418;2024-01-15T12:52:18;4.60;;;1.90;;
62693;SDS011;48759;52.544;13.418;2024-01-15T12:54:48;2.17;;;1.70;;
62693;SDS011;48759;52.544;13.418;2024-01-15T12:57:30;2.47;;;2.00;;
62693;SDS011;48759;52.544;13.418;2024-01-15T13:00:10;1.30;;;1.30;;
62693;SDS011;48759;52.544;13.418;2024-01-15T13:02:46;2.73;;;1.63;;
62693;SDS011;48759;52.544;13.418;2024-01-15T13:05:15;3.30;;;1.37;;
62693;SDS011;48759;52.544;13.418;2024-01-15T13:07:48;2.30;;;1.47;;
62693;SDS011;48759;52.544;13.418;2024-01-15T13:10:20;1.40;;;1.30;;
62693;SDS011;48759;52.544;13.418;2024-01-15T13:13:21;1.43;;;1.33;;
62693;SDS011;48759;52.544;13.418;2024-01-15T13:15:54;2.20;;;1.60;;
62693;SDS011;48759;52.544;13.418;2024-01-15T13:18:27;2.30;;;1.70;;
62693;SDS011;48759;52.544;13.418;2024-01-15T13:21:08;3.50;;;2.00;;
62693;SDS011;48759;52.544;13.418;2024-01-15T13:23:37;1.40;;;1.30;;
62693;SDS011;48759;52.544;13.418;2024-01-15T13:26:05;6.53;;;1.90;;
62693;SDS011;48759;52.544;13.418;2024-01-15T13:31:30;1.63;;;1.50;;
62693;SDS011;48759;52.544;13.418;2024-01-15T13:33:57;3.80;;;1.63;;
62693;SDS011;48759;52.544;13.418;2024-01-15T13:36:27;1.40;;;1.30;;
62693;SDS011;48759;52.544;13.418;2024-01-15T13:38:55;1.50;;;1.40;;
62693;SDS011;48759;52.544;13.418;2024-01-15T13:41:29;3.10;;;1.73;;
62693;SDS011;48759;52.544;13.418;2024-01-15T13:43:57;4.30;;;1.53;;
62693;SDS011;48759;52.544;13.418;2024-01-15T13:46:27;1.63;;;1.50;;
62693;SDS011;48759;52.544;13.418;2024-01-15T13:49:08;1.70;;;1.60;;
62693;SDS011;48759;52.544;13.418;2024-01-15T13:51:39;1.40;;;1.23;;
62693;SDS011;48759;52.544;13.418;2024-01-15T13:54:11;3.20;;;2.03;;
62693;SDS011;48759;52.544;13.418;2024-01-15T13:56:55;5.40;;;1.47;;
62693;SDS011;48759;52.544;13.418;2024-01-15T13:59:25;3.70;;;1.43;;
62693;SDS011;48759;52.544;13.418;2024-01-15T14:02:05;1.90;;;1.43;;
62693;SDS011;48759;52.544;13.418;2024-01-15T14:04:33;2.20;;;1.37;;
62693;SDS011;48759;52.544;13.418;2024-01-15T14:07:03;7.90;;;1.90;;
62693;SDS011;48759;52.544;13.418;2024-01-15T14:09:37;1.83;;;1.37;;
62693;SDS011;48759;52.544;13.418;2024-01-15T14:12:06;2.07;;;1.50;;
62693;SDS011;48759;52.544;13.418;2024-01-15T14:14:35;3.73;;;1.70;;
62693;SDS011;48759;52.544;13.418;2024-01-15T14:17:07;3.70;;;1.50;;
62693;SDS011;48759;52.544;13.418;2024-01-15T14:19:41;2.27;;;1.80;;
62693;SDS011;48759;52.544;13.418;2024-01-15T14:22:13;1.40;;;1.20;;
62693;SDS011;48759;52.544;13.418;2024-01-15T14:24:55;2.03;;;1.50;;
62693;SDS011;48759;52.544;13.418;2024-01-15T14:27:22;3.40;;;1.23;;
62693;SDS011;48759;52.544;13.418;2024-01-15T14:29:52;4.53;;;1.67;;
62693;SDS011;48759;52.544;13.418;2024-01-15T14:32:21;1.87;;;1.30;;
62693;SDS011;48759;52.544;13.418;2024-01-15T14:34:50;1.77;;;1.20;;
62693;SDS011;48759;52.544;13.418;2024-01-15T14:37:29;6.00;;;2.03;;
62693;SDS011;48759;52.544;13.418;2024-01-15T14:40:02;5.90;;;2.23;;
62693;SDS011;48759;52.544;13.418;2024-01-15T14:42:29;2.93;;;1.80;;
62693;SDS011;48759;52.544;13.418;2024-01-15T14:44:56;1.33;;;1.23;;
62693;SDS011;48759;52.544;13.418;2024-01-15T14:50:08;5.87;;;1.37;;
62693;SDS011;48759;52.544;13.418;2024-01-15T14:52:37;6.77;;;1.40;;
62693;SDS011;48759;52.544;13.418;2024-01-15T14:55:04;3.17;;;1.60;;
62693;SDS011;48759;52.544;13.418;2024-01-15T14:57:42;2.53;;;1.80;;
62693;SDS011;48759;52.544;13.418;2024-01-15T15:00:23;3.23;;;1.60;;
62693;SDS011;48759;52.544;13.418;2024-01-15T15:02:52;3.10;;;1.30;;
62693;SDS011;48759;52.544;13.418;2024-01-15T15:08:30;4.03;;;1.57;;